createdAt,value
2022-09-12T00:00:27.301Z,99481.47
2022-09-12T00:01:15.846Z,99486.47
2022-09-12T00:01:47.886Z,99491.19
2022-09-12T00:02:19.787Z,99492.84
2022-09-12T00:02:55.330Z,99486.47
2022-09-12T00:03:27.181Z,99496.50
2022-09-12T00:04:02.048Z,99481.78
2022-09-12T00:04:34.015Z,99484.38
2022-09-12T00:05:07.436Z,99486.53
2022-09-12T00:05:44.339Z,99491.81
2022-09-12T00:06:23.096Z,99489.84
2022-09-12T00:06:55.225Z,99487.25
2022-09-12T00:07:27.093Z,99479.91
2022-09-12T00:08:00.244Z,99485.25
2022-09-12T00:08:32.088Z,99494.00
2022-09-12T00:09:13.072Z,99491.84
2022-09-12T00:09:44.995Z,99495.72
2022-09-12T00:10:17.439Z,99495.19
2022-09-12T00:10:49.257Z,99494.22
2022-09-12T00:11:21.770Z,99494.16
2022-09-12T00:11:53.599Z,99493.69
2022-09-12T00:12:25.518Z,99493.19
2022-09-12T00:12:57.413Z,99488.72
2022-09-12T00:13:29.261Z,99491.59
2022-09-12T00:14:02.161Z,99496.63
2022-09-12T00:14:34.033Z,99495.56
2022-09-12T00:15:06.885Z,99491.03
2022-09-12T00:15:43.564Z,99493.06
2022-09-12T00:16:18.003Z,99488.06
2022-09-12T00:16:50.245Z,99494.12
2022-09-12T00:17:22.183Z,99497.31
2022-09-12T00:17:54.009Z,99494.12
2022-09-12T00:18:25.874Z,99485.22
2022-09-12T00:18:58.067Z,99488.59
2022-09-12T00:19:30.628Z,99489.06
2022-09-12T00:20:04.017Z,99492.03
2022-09-12T00:20:35.938Z,99493.69
2022-09-12T00:21:07.818Z,99491.34
2022-09-12T00:21:40.645Z,99493.16
2022-09-12T00:22:12.784Z,99485.81
2022-09-12T00:22:44.601Z,99489.53
2022-09-12T00:23:16.501Z,99494.72
2022-09-12T00:23:49.446Z,99491.22
2022-09-12T00:24:21.431Z,99490.50
2022-09-12T00:24:53.389Z,99488.22
2022-09-12T00:25:25.280Z,99489.00
2022-09-12T00:25:57.167Z,99490.59
2022-09-12T00:26:29.205Z,99492.19
2022-09-12T00:27:01.113Z,99493.22
2022-09-12T00:27:33.258Z,99494.56
2022-09-12T00:28:05.449Z,99490.59
2022-09-12T00:28:39.368Z,99495.03
2022-09-12T00:29:20.090Z,99492.13
2022-09-12T00:29:51.871Z,99488.72
2022-09-12T00:30:23.995Z,99490.75
2022-09-12T00:30:55.840Z,99489.09
2022-09-12T00:31:28.654Z,99490.44
2022-09-12T00:32:00.582Z,99494.12
2022-09-12T00:32:32.609Z,99487.81
2022-09-12T00:33:04.704Z,99488.63
2022-09-12T00:33:37.053Z,99482.81
2022-09-12T00:34:10.042Z,99483.28
2022-09-12T00:34:41.931Z,99488.34
2022-09-12T00:35:13.746Z,99486.25
2022-09-12T00:35:52.935Z,99484.97
2022-09-12T00:36:26.067Z,99486.59
2022-09-12T00:36:57.886Z,99485.25
2022-09-12T00:37:29.706Z,99488.34
2022-09-12T00:38:01.566Z,99482.50
2022-09-12T00:38:34.008Z,99480.41
2022-09-12T00:39:06.385Z,99488.78
2022-09-12T00:39:38.348Z,99486.41
2022-09-12T00:40:11.064Z,99483.28
2022-09-12T00:40:43.546Z,99488.88
2022-09-12T00:41:21.005Z,99482.81
2022-09-12T00:41:52.956Z,99490.66
2022-09-12T00:42:24.822Z,99488.06
2022-09-12T00:42:56.685Z,99489.91
2022-09-12T00:43:39.056Z,99488.03
2022-09-12T00:44:23.048Z,99489.66
2022-09-12T00:44:54.880Z,99490.19
2022-09-12T00:45:29.408Z,99487.25
2022-09-12T00:46:08.022Z,99488.31
2022-09-12T00:47:16.191Z,99490.41
2022-09-12T00:47:48.060Z,99486.22
2022-09-12T00:48:32.306Z,99492.13
2022-09-12T00:49:13.606Z,99488.13
2022-09-12T00:49:54.865Z,99488.94
2022-09-12T00:50:28.088Z,99484.72
2022-09-12T00:51:00.957Z,99484.72
2022-09-12T00:51:36.130Z,99484.63
2022-09-12T00:52:16.826Z,99488.34
2022-09-12T00:53:08.001Z,99484.31
2022-09-12T00:53:43.755Z,99495.63
2022-09-12T00:54:21.193Z,99488.66
2022-09-12T00:54:56.524Z,99497.00
2022-09-12T00:55:44.621Z,99494.25
2022-09-12T00:56:18.872Z,99490.63
2022-09-12T00:56:53.341Z,99493.69
2022-09-12T00:57:31.255Z,99496.69
2022-09-12T00:58:14.837Z,99495.41
2022-09-12T00:59:11.641Z,99488.78
2022-09-12T00:59:54.133Z,99485.66
2022-09-12T01:00:28.395Z,99492.44
2022-09-12T01:01:01.000Z,99489.28
2022-09-12T01:01:34.124Z,99492.16
2022-09-12T01:02:07.271Z,99484.50
2022-09-12T01:02:39.492Z,99493.59
2022-09-12T01:03:14.777Z,99485.53
2022-09-12T01:03:47.530Z,99484.50
2022-09-12T01:04:22.479Z,99489.81
2022-09-12T01:04:54.507Z,99485.59
2022-09-12T01:05:29.257Z,99486.69
2022-09-12T01:06:23.829Z,99487.72
2022-09-12T01:06:58.510Z,99493.03
2022-09-12T01:07:30.653Z,99492.16
2022-09-12T01:08:04.489Z,99491.37
2022-09-12T01:08:37.498Z,99491.63
2022-09-12T01:09:15.964Z,99487.97
2022-09-12T01:09:48.160Z,99491.13
2022-09-12T01:10:20.717Z,99494.56
2022-09-12T01:10:52.975Z,99490.87
2022-09-12T01:11:25.641Z,99497.72
2022-09-12T01:11:57.984Z,99484.03
2022-09-12T01:12:29.814Z,99492.44
2022-09-12T01:13:05.031Z,99496.72
2022-09-12T01:13:37.334Z,99490.78
2022-09-12T01:14:09.414Z,99487.66
2022-09-12T01:14:41.442Z,99492.16
2022-09-12T01:15:13.815Z,99487.69
2022-09-12T01:15:45.916Z,99484.50
2022-09-12T01:16:18.383Z,99486.41
2022-09-12T01:16:51.176Z,99487.78
2022-09-12T01:17:27.784Z,99493.34
2022-09-12T01:17:59.634Z,99486.69
2022-09-12T01:18:55.638Z,99486.16
2022-09-12T01:19:27.407Z,99483.41
2022-09-12T01:20:27.159Z,99487.59
2022-09-12T01:21:31.404Z,99485.44
2022-09-12T01:22:21.440Z,99481.84
2022-09-12T01:23:11.055Z,99483.94
2022-09-12T01:24:09.656Z,99491.28
2022-09-12T01:24:59.836Z,99485.81
2022-09-12T01:25:40.457Z,99481.41
2022-09-12T01:26:49.983Z,99484.06
2022-09-12T01:27:32.507Z,99483.44
2022-09-12T01:28:46.057Z,99494.66
2022-09-12T01:29:57.864Z,99482.47
2022-09-12T01:31:04.860Z,99490.78
2022-09-12T01:32:02.520Z,99490.87
2022-09-12T01:32:52.769Z,99490.09
2022-09-12T01:33:52.240Z,99491.37
2022-09-12T01:34:46.801Z,99488.69
2022-09-12T01:35:27.993Z,99494.53
2022-09-12T01:36:08.816Z,99494.00
2022-09-12T01:36:59.838Z,99491.84
2022-09-12T01:37:42.949Z,99490.87
2022-09-12T01:38:46.856Z,99487.59
2022-09-12T01:39:57.510Z,99491.22
2022-09-12T01:40:57.408Z,99493.66
2022-09-12T01:41:54.582Z,99490.47
2022-09-12T01:42:47.053Z,99485.41
2022-09-12T01:43:25.163Z,99486.97
2022-09-12T01:44:09.570Z,99488.03
2022-09-12T01:44:55.208Z,99482.13
2022-09-12T01:45:39.483Z,99492.66
2022-09-12T01:46:33.226Z,99479.53
2022-09-12T01:47:16.990Z,99483.78
2022-09-12T01:48:29.823Z,99482.03
2022-09-12T01:49:17.980Z,99481.72
2022-09-12T01:50:08.025Z,99485.31
2022-09-12T01:50:54.468Z,99485.38
2022-09-12T01:51:33.643Z,99479.81
2022-09-12T01:52:23.135Z,99482.72
2022-09-12T01:53:01.646Z,99485.50
2022-09-12T01:53:47.579Z,99486.16
2022-09-12T01:54:26.488Z,99477.56
2022-09-12T01:55:09.709Z,99475.25
2022-09-12T01:55:46.423Z,99479.44
2022-09-12T01:56:25.966Z,99478.84
2022-09-12T01:57:02.438Z,99485.13
2022-09-12T01:57:42.147Z,99484.63
2022-09-12T01:58:19.346Z,99479.81
2022-09-12T01:59:03.983Z,99481.94
2022-09-12T01:59:43.257Z,99480.66
2022-09-12T02:00:15.783Z,99488.28
2022-09-12T02:01:01.534Z,99488.00
2022-09-12T02:01:36.776Z,99484.31
2022-09-12T02:02:15.139Z,99480.97
2022-09-12T02:03:09.499Z,99483.13
2022-09-12T02:03:54.264Z,99481.28
2022-09-12T02:04:34.069Z,99480.25
2022-09-12T02:05:17.591Z,99476.31
2022-09-12T02:05:57.981Z,99483.88
2022-09-12T02:06:36.645Z,99481.72
2022-09-12T02:07:13.811Z,99484.72
2022-09-12T02:07:53.841Z,99476.25
2022-09-12T02:08:33.812Z,99484.44
2022-09-12T02:09:15.922Z,99475.19
2022-09-12T02:10:04.222Z,99483.47
2022-09-12T02:10:47.723Z,99472.25
2022-09-12T02:11:21.329Z,99482.03
2022-09-12T02:11:58.736Z,99477.31
2022-09-12T02:12:39.610Z,99477.56
2022-09-12T02:13:21.992Z,99481.53
2022-09-12T02:13:58.861Z,99485.13
2022-09-12T02:14:36.763Z,99489.38
2022-09-12T02:15:11.970Z,99488.78
2022-09-12T02:15:49.914Z,99490.91
2022-09-12T02:16:40.335Z,99490.91
2022-09-12T02:17:18.826Z,99487.38
2022-09-12T02:17:53.169Z,99480.03
2022-09-12T02:18:28.337Z,99490.34
2022-09-12T02:19:07.516Z,99487.50
2022-09-12T02:19:51.842Z,99484.13
2022-09-12T02:20:47.369Z,99485.91
2022-09-12T02:21:22.764Z,99475.19
2022-09-12T02:21:58.366Z,99475.19
2022-09-12T02:22:31.679Z,99475.19
2022-09-12T02:23:08.465Z,99486.41
2022-09-12T02:23:48.131Z,99480.34
2022-09-12T02:24:23.124Z,99477.69
2022-09-12T02:24:59.335Z,99488.72
2022-09-12T02:25:31.162Z,99482.44
2022-09-12T02:26:20.546Z,99485.13
2022-09-12T02:27:00.182Z,99472.75
2022-09-12T02:27:44.479Z,99486.69
2022-09-12T02:28:23.623Z,99488.00
2022-09-12T02:28:56.801Z,99482.97
2022-09-12T02:29:28.873Z,99485.13
2022-09-12T02:30:00.746Z,99481.94
2022-09-12T02:30:40.437Z,99481.84
2022-09-12T02:31:12.266Z,99475.97
2022-09-12T02:31:54.116Z,99480.78
2022-09-12T02:32:28.726Z,99480.13
2022-09-12T02:33:02.730Z,99483.31
2022-09-12T02:33:58.617Z,99475.84
2022-09-12T02:34:59.655Z,99480.31
2022-09-12T02:35:43.848Z,99478.44
2022-09-12T02:36:24.107Z,99482.75
2022-09-12T02:37:06.311Z,99481.91
2022-09-12T02:37:56.507Z,99477.69
2022-09-12T02:38:32.892Z,99476.63
2022-09-12T02:39:04.731Z,99480.84
2022-09-12T02:39:37.057Z,99483.56
2022-09-12T02:40:09.966Z,99476.47
2022-09-12T02:40:42.060Z,99481.72
2022-09-12T02:41:17.628Z,99479.66
2022-09-12T02:41:55.795Z,99481.78
2022-09-12T02:42:27.653Z,99478.94
2022-09-12T02:43:00.701Z,99481.50
2022-09-12T02:43:33.291Z,99489.19
2022-09-12T02:44:06.109Z,99476.25
2022-09-12T02:44:38.063Z,99477.53
2022-09-12T02:45:12.452Z,99487.59
2022-09-12T02:45:44.822Z,99473.84
2022-09-12T02:46:33.328Z,99478.84
2022-09-12T02:47:11.409Z,99478.97
2022-09-12T02:48:13.453Z,99479.03
2022-09-12T02:48:45.916Z,99480.19
2022-09-12T02:49:17.997Z,99486.00
2022-09-12T02:49:50.077Z,99487.84
2022-09-12T02:50:22.187Z,99483.34
2022-09-12T02:50:54.534Z,99485.09
2022-09-12T02:51:27.226Z,99486.88
2022-09-12T02:52:00.890Z,99487.34
2022-09-12T02:52:32.997Z,99493.22
2022-09-12T02:53:07.123Z,99488.00
2022-09-12T02:53:39.647Z,99489.84
2022-09-12T02:54:13.837Z,99491.13
2022-09-12T02:54:46.294Z,99494.31
2022-09-12T02:55:18.186Z,99493.81
2022-09-12T02:55:51.505Z,99490.34
2022-09-12T02:56:30.293Z,99486.62
2022-09-12T02:57:02.232Z,99496.91
2022-09-12T02:57:34.084Z,99492.53
2022-09-12T02:58:11.969Z,99490.53
2022-09-12T02:58:44.421Z,99495.03
2022-09-12T02:59:20.060Z,99496.50
2022-09-12T02:59:56.089Z,99502.34
2022-09-12T03:00:35.432Z,99500.81
2022-09-12T03:01:26.998Z,99495.22
2022-09-12T03:02:14.032Z,99501.72
2022-09-12T03:03:04.564Z,99501.59
2022-09-12T03:04:04.404Z,99490.84
2022-09-12T03:04:57.236Z,99503.84
2022-09-12T03:05:59.694Z,99504.41
2022-09-12T03:06:56.229Z,99508.81
2022-09-12T03:07:31.115Z,99504.34
2022-09-12T03:08:17.986Z,99502.38
2022-09-12T03:09:00.390Z,99508.44
2022-09-12T03:10:00.048Z,99498.41
2022-09-12T03:11:10.047Z,99501.72
2022-09-12T03:12:00.618Z,99505.97
2022-09-12T03:12:38.016Z,99502.03
2022-09-12T03:13:18.674Z,99508.03
2022-09-12T03:14:08.990Z,99515.38
2022-09-12T03:15:10.904Z,99504.06
2022-09-12T03:15:59.464Z,99504.69
2022-09-12T03:16:57.335Z,99507.81
2022-09-12T03:17:41.929Z,99511.56
2022-09-12T03:18:35.596Z,99509.16
2022-09-12T03:19:16.932Z,99516.47
2022-09-12T03:20:01.053Z,99509.09
2022-09-12T03:20:44.815Z,99506.97
2022-09-12T03:21:33.491Z,99509.66
2022-09-12T03:22:19.064Z,99504.97
2022-09-12T03:23:02.623Z,99512.56
2022-09-12T03:23:52.469Z,99512.31
2022-09-12T03:24:38.540Z,99514.63
2022-09-12T03:25:16.571Z,99508.72
2022-09-12T03:26:03.923Z,99512.06
2022-09-12T03:26:48.202Z,99510.28
2022-09-12T03:27:31.588Z,99518.44
2022-09-12T03:28:15.695Z,99516.72
2022-09-12T03:28:49.521Z,99512.56
2022-09-12T03:29:24.088Z,99506.56
2022-09-12T03:29:56.472Z,99518.03
2022-09-12T03:30:28.836Z,99512.78
2022-09-12T03:31:00.889Z,99511.38
2022-09-12T03:31:33.082Z,99509.00
2022-09-12T03:32:05.263Z,99507.47
2022-09-12T03:32:46.938Z,99514.50
2022-09-12T03:33:21.873Z,99510.75
2022-09-12T03:33:53.685Z,99508.19
2022-09-12T03:34:27.593Z,99515.66
2022-09-12T03:34:59.423Z,99518.28
2022-09-12T03:35:31.285Z,99515.03
2022-09-12T03:36:03.364Z,99515.09
2022-09-12T03:36:35.209Z,99516.16
2022-09-12T03:37:07.531Z,99516.94
2022-09-12T03:37:39.546Z,99520.84
2022-09-12T03:38:11.415Z,99520.47
2022-09-12T03:38:43.242Z,99515.84
2022-09-12T03:39:15.701Z,99516.62
2022-09-12T03:39:47.559Z,99514.31
2022-09-12T03:40:19.819Z,99516.94
2022-09-12T03:40:54.856Z,99516.47
2022-09-12T03:41:26.879Z,99514.97
2022-09-12T03:41:58.885Z,99518.72
2022-09-12T03:42:31.048Z,99514.88
2022-09-12T03:43:03.913Z,99511.25
2022-09-12T03:43:35.811Z,99510.72
2022-09-12T03:44:07.648Z,99517.97
2022-09-12T03:44:39.486Z,99518.53
2022-09-12T03:45:11.924Z,99514.31
2022-09-12T03:45:43.757Z,99515.19
2022-09-12T03:46:15.593Z,99515.53
2022-09-12T03:46:47.702Z,99515.75
2022-09-12T03:47:19.525Z,99507.94
2022-09-12T03:47:51.760Z,99509.06
2022-09-12T03:48:23.600Z,99507.38
2022-09-12T03:48:55.412Z,99514.47
2022-09-12T03:49:27.246Z,99514.25
2022-09-12T03:49:59.088Z,99514.47
2022-09-12T03:50:30.951Z,99516.16
2022-09-12T03:51:05.164Z,99515.34
2022-09-12T03:51:37.901Z,99510.00
2022-09-12T03:52:09.749Z,99516.66
2022-09-12T03:52:41.604Z,99517.03
2022-09-12T03:53:17.021Z,99514.00
2022-09-12T03:53:49.354Z,99519.84
2022-09-12T03:54:21.239Z,99516.09
2022-09-12T03:54:53.168Z,99516.56
2022-09-12T03:55:26.687Z,99522.22
2022-09-12T03:55:59.071Z,99517.44
2022-09-12T03:56:31.223Z,99526.84
2022-09-12T03:57:03.144Z,99527.47
2022-09-12T03:57:35.024Z,99522.06
2022-09-12T03:58:07.319Z,99523.66
2022-09-12T03:58:39.584Z,99516.72
2022-09-12T03:59:11.479Z,99520.47
2022-09-12T03:59:43.330Z,99527.09
2022-09-12T04:00:19.541Z,99527.66
2022-09-12T04:00:52.062Z,99524.47
2022-09-12T04:01:24.275Z,99529.72
2022-09-12T04:01:56.205Z,99525.66
2022-09-12T04:02:29.046Z,99528.50
2022-09-12T04:03:00.952Z,99527.56
2022-09-12T04:03:32.787Z,99530.50
2022-09-12T04:04:04.670Z,99529.16
2022-09-12T04:04:36.578Z,99530.50
2022-09-12T04:05:08.807Z,99524.59
2022-09-12T04:05:40.696Z,99528.44
2022-09-12T04:06:15.532Z,99524.78
2022-09-12T04:06:47.355Z,99524.28
2022-09-12T04:07:19.512Z,99528.28
2022-09-12T04:07:51.723Z,99523.81
2022-09-12T04:08:23.552Z,99525.72
2022-09-12T04:08:55.856Z,99525.44
2022-09-12T04:09:27.692Z,99528.78
2022-09-12T04:09:59.512Z,99524.44
2022-09-12T04:10:32.200Z,99527.06
2022-09-12T04:11:06.094Z,99531.22
2022-09-12T04:11:38.305Z,99532.41
2022-09-12T04:12:10.355Z,99534.81
2022-09-12T04:12:42.265Z,99530.44
2022-09-12T04:13:14.175Z,99524.47
2022-09-12T04:13:46.645Z,99529.06
2022-09-12T04:14:18.748Z,99532.91
2022-09-12T04:14:50.663Z,99534.31
2022-09-12T04:15:22.561Z,99531.84
2022-09-12T04:16:01.343Z,99536.31
2022-09-12T04:16:33.289Z,99534.81
2022-09-12T04:17:05.724Z,99533.38
2022-09-12T04:17:37.580Z,99532.91
2022-09-12T04:18:09.478Z,99521.41
2022-09-12T04:18:41.393Z,99523.38
2022-09-12T04:19:13.417Z,99527.84
2022-09-12T04:19:45.256Z,99527.16
2022-09-12T04:20:17.078Z,99532.34
2022-09-12T04:20:49.041Z,99528.09
2022-09-12T04:21:23.938Z,99528.34
2022-09-12T04:21:55.819Z,99530.03
2022-09-12T04:22:29.864Z,99528.13
2022-09-12T04:23:01.724Z,99530.84
2022-09-12T04:23:33.818Z,99526.06
2022-09-12T04:24:05.972Z,99525.81
2022-09-12T04:24:37.781Z,99535.94
2022-09-12T04:25:09.919Z,99521.56
2022-09-12T04:25:41.880Z,99521.63
2022-09-12T04:26:14.835Z,99529.22
2022-09-12T04:26:46.937Z,99525.88
2022-09-12T04:27:18.763Z,99528.50
2022-09-12T04:27:51.031Z,99527.53
2022-09-12T04:28:23.023Z,99529.37
2022-09-12T04:28:55.897Z,99528.72
2022-09-12T04:29:27.980Z,99527.22
2022-09-12T04:30:02.206Z,99528.19
2022-09-12T04:30:34.703Z,99526.00
2022-09-12T04:31:09.280Z,99521.06
2022-09-12T04:31:42.095Z,99522.81
2022-09-12T04:32:15.128Z,99528.75
2022-09-12T04:32:46.999Z,99527.19
2022-09-12T04:33:19.196Z,99523.13
2022-09-12T04:33:56.424Z,99520.09
2022-09-12T04:34:31.292Z,99513.75
2022-09-12T04:35:04.195Z,99521.37
2022-09-12T04:35:36.366Z,99524.16
2022-09-12T04:36:17.456Z,99517.22
2022-09-12T04:36:49.301Z,99517.56
2022-09-12T04:37:21.637Z,99525.84
2022-09-12T04:37:53.688Z,99524.25
2022-09-12T04:38:26.562Z,99520.41
2022-09-12T04:39:00.083Z,99519.53
2022-09-12T04:39:31.987Z,99518.34
2022-09-12T04:40:03.965Z,99522.19
2022-09-12T04:40:35.857Z,99517.34
2022-09-12T04:41:15.569Z,99521.31
2022-09-12T04:41:47.402Z,99519.19
2022-09-12T04:42:19.230Z,99520.75
2022-09-12T04:42:51.091Z,99522.47
2022-09-12T04:43:22.921Z,99526.34
2022-09-12T04:44:03.591Z,99524.44
2022-09-12T04:44:35.454Z,99524.12
2022-09-12T04:45:08.042Z,99522.53
2022-09-12T04:45:39.906Z,99519.66
2022-09-12T04:46:13.255Z,99527.19
2022-09-12T04:46:47.143Z,99526.34
2022-09-12T04:47:19.181Z,99522.78
2022-09-12T04:47:51.564Z,99527.63
2022-09-12T04:48:23.437Z,99525.88
2022-09-12T04:48:57.007Z,99520.97
2022-09-12T04:49:29.142Z,99525.25
2022-09-12T04:50:01.087Z,99523.34
2022-09-12T04:50:33.137Z,99521.66
2022-09-12T04:51:10.450Z,99527.00
2022-09-12T04:51:44.155Z,99522.22
2022-09-12T04:52:15.992Z,99518.16
2022-09-12T04:52:54.669Z,99518.56
2022-09-12T04:53:26.524Z,99522.94
2022-09-12T04:54:00.927Z,99522.53
2022-09-12T04:54:32.936Z,99520.56
2022-09-12T04:55:05.149Z,99529.06
2022-09-12T04:55:36.984Z,99524.53
2022-09-12T04:56:10.652Z,99520.87
2022-09-12T04:56:44.693Z,99521.44
2022-09-12T04:57:16.638Z,99528.13
2022-09-12T04:57:49.073Z,99530.03
2022-09-12T04:58:20.929Z,99523.34
2022-09-12T04:58:53.129Z,99529.63
2022-09-12T04:59:25.394Z,99531.00
2022-09-12T04:59:57.236Z,99532.56
2022-09-12T05:00:29.138Z,99530.34
2022-09-12T05:01:11.969Z,99527.09
2022-09-12T05:01:43.915Z,99526.97
2022-09-12T05:02:16.345Z,99530.50
2022-09-12T05:02:48.319Z,99527.16
2022-09-12T05:03:20.212Z,99532.22
2022-09-12T05:03:53.147Z,99528.41
2022-09-12T05:04:25.255Z,99528.25
2022-09-12T05:04:57.152Z,99529.53
2022-09-12T05:05:28.988Z,99526.59
2022-09-12T05:06:04.767Z,99529.59
2022-09-12T05:06:38.275Z,99531.03
2022-09-12T05:07:10.311Z,99527.31
2022-09-12T05:07:42.182Z,99526.75
2022-09-12T05:08:14.085Z,99527.06
2022-09-12T05:08:46.369Z,99523.97
2022-09-12T05:09:18.308Z,99525.69
2022-09-12T05:09:50.488Z,99520.28
2022-09-12T05:10:23.854Z,99527.09
2022-09-12T05:10:55.977Z,99529.25
2022-09-12T05:11:59.631Z,99526.88
2022-09-12T05:12:25.340Z,99530.84
2022-09-12T05:12:57.200Z,99527.56
2022-09-12T05:13:29.153Z,99524.72
2022-09-12T05:14:01.208Z,99527.41
2022-09-12T05:14:34.140Z,99521.59
2022-09-12T05:15:07.091Z,99525.16
2022-09-12T05:15:39.993Z,99527.34
2022-09-12T05:16:15.351Z,99533.56
2022-09-12T05:16:49.538Z,99527.19
2022-09-12T05:17:21.745Z,99527.59
2022-09-12T05:17:53.582Z,99530.09
2022-09-12T05:18:26.663Z,99532.59
2022-09-12T05:18:59.401Z,99533.63
2022-09-12T05:19:33.787Z,99533.69
2022-09-12T05:20:05.999Z,99534.78
2022-09-12T05:20:38.204Z,99532.16
2022-09-12T05:21:12.381Z,99536.47
2022-09-12T05:21:44.264Z,99526.09
2022-09-12T05:22:16.129Z,99539.34
2022-09-12T05:22:47.966Z,99528.72
2022-09-12T05:23:19.998Z,99542.19
2022-09-12T05:23:56.750Z,99537.19
2022-09-12T05:24:28.873Z,99537.53
2022-09-12T05:25:00.774Z,99534.06
2022-09-12T05:25:32.587Z,99539.91
2022-09-12T05:26:06.827Z,99542.31
2022-09-12T05:26:38.842Z,99546.03
2022-09-12T05:27:10.663Z,99543.94
2022-09-12T05:27:42.503Z,99538.69
2022-09-12T05:28:14.362Z,99545.69
2022-09-12T05:28:48.165Z,99539.03
2022-09-12T05:29:20.075Z,99540.94
2022-09-12T05:29:51.892Z,99543.37
2022-09-12T05:30:23.779Z,99541.34
2022-09-12T05:31:12.668Z,99543.53
2022-09-12T05:31:45.000Z,99555.44
2022-09-12T05:32:16.902Z,99551.53
2022-09-12T05:32:49.686Z,99540.97
2022-09-12T05:33:25.006Z,99553.38
2022-09-12T05:33:57.704Z,99547.41
2022-09-12T05:34:29.563Z,99546.09
2022-09-12T05:35:01.523Z,99549.06
2022-09-12T05:35:33.364Z,99548.88
2022-09-12T05:36:07.621Z,99557.09
2022-09-12T05:36:39.788Z,99552.88
2022-09-12T05:37:13.025Z,99552.34
2022-09-12T05:37:44.859Z,99553.47
2022-09-12T05:38:16.692Z,99553.97
2022-09-12T05:38:48.734Z,99549.78
2022-09-12T05:39:20.663Z,99549.78
2022-09-12T05:39:52.953Z,99550.56
2022-09-12T05:40:24.903Z,99554.50
2022-09-12T05:41:08.182Z,99541.81
2022-09-12T05:41:40.162Z,99557.38
2022-09-12T05:42:12.271Z,99544.75
2022-09-12T05:42:44.118Z,99549.25
2022-09-12T05:43:16.131Z,99547.44
2022-09-12T05:43:52.525Z,99545.59
2022-09-12T05:44:24.944Z,99551.69
2022-09-12T05:44:57.362Z,99550.09
2022-09-12T05:45:30.047Z,99541.69
2022-09-12T05:46:04.265Z,99549.88
2022-09-12T05:46:38.730Z,99547.72
2022-09-12T05:47:12.994Z,99546.66
2022-09-12T05:47:47.140Z,99547.75
2022-09-12T05:48:18.994Z,99550.41
2022-09-12T05:48:55.644Z,99555.16
2022-09-12T05:49:28.087Z,99549.38
2022-09-12T05:49:59.934Z,99554.91
2022-09-12T05:50:32.445Z,99554.66
2022-09-12T05:51:26.589Z,99549.09
2022-09-12T05:51:58.437Z,99550.94
2022-09-12T05:52:31.099Z,99556.75
2022-09-12T05:53:03.425Z,99555.44
2022-09-12T05:53:37.462Z,99558.31
2022-09-12T05:54:12.002Z,99551.47
2022-09-12T05:54:43.937Z,99554.13
2022-09-12T05:55:16.616Z,99547.75
2022-09-12T05:55:49.377Z,99549.09
2022-09-12T05:56:23.865Z,99553.34
2022-09-12T05:56:56.751Z,99555.97
2022-09-12T05:57:29.294Z,99552.78
2022-09-12T05:58:01.129Z,99554.66
2022-09-12T05:58:34.856Z,99551.69
2022-09-12T05:59:12.109Z,99553.56
2022-09-12T05:59:44.029Z,99550.91
2022-09-12T06:00:16.646Z,99555.16
2022-09-12T06:00:49.624Z,99557.81
2022-09-12T06:01:21.902Z,99557.25
2022-09-12T06:01:54.007Z,99556.19
2022-09-12T06:02:26.555Z,99553.00
2022-09-12T06:02:58.487Z,99549.31
2022-09-12T06:03:30.394Z,99552.47
2022-09-12T06:04:05.586Z,99558.28
2022-09-12T06:04:37.427Z,99552.16
2022-09-12T06:05:09.477Z,99563.03
2022-09-12T06:05:41.366Z,99550.84
2022-09-12T06:06:15.329Z,99554.56
2022-09-12T06:06:47.226Z,99562.25
2022-09-12T06:07:19.138Z,99556.66
2022-09-12T06:07:51.705Z,99558.50
2022-09-12T06:08:23.713Z,99567.22
2022-09-12T06:09:01.460Z,99559.84
2022-09-12T06:09:33.330Z,99556.63
2022-09-12T06:10:05.527Z,99556.63
2022-09-12T06:10:37.407Z,99554.53
2022-09-12T06:11:11.699Z,99552.16
2022-09-12T06:11:45.359Z,99555.66
2022-09-12T06:12:17.189Z,99551.13
2022-09-12T06:12:49.302Z,99552.13
2022-09-12T06:13:21.188Z,99557.69
2022-09-12T06:13:53.575Z,99554.00
2022-09-12T06:14:25.465Z,99552.34
2022-09-12T06:14:57.351Z,99555.03
2022-09-12T06:15:29.151Z,99551.81
2022-09-12T06:16:08.938Z,99559.78
2022-09-12T06:16:41.187Z,99555.75
2022-09-12T06:17:13.384Z,99555.19
2022-09-12T06:17:49.476Z,99555.78
2022-09-12T06:18:23.139Z,99559.75
2022-09-12T06:19:00.253Z,99553.47
2022-09-12T06:19:32.188Z,99550.25
2022-09-12T06:20:04.227Z,99550.97
2022-09-12T06:20:36.933Z,99553.03
2022-09-12T06:21:10.902Z,99554.03
2022-09-12T06:21:42.870Z,99546.28
2022-09-12T06:22:14.990Z,99548.88
2022-09-12T06:22:47.986Z,99554.66
2022-09-12T06:23:19.800Z,99545.97
2022-09-12T06:23:51.652Z,99557.50
2022-09-12T06:24:23.543Z,99550.66
2022-09-12T06:24:57.930Z,99553.25
2022-09-12T06:25:30.017Z,99556.84
2022-09-12T06:26:02.477Z,99562.12
2022-09-12T06:26:34.569Z,99558.44
2022-09-12T06:27:06.418Z,99556.88
2022-09-12T06:27:38.564Z,99556.56
2022-09-12T06:28:10.407Z,99556.81
2022-09-12T06:28:44.992Z,99558.94
2022-09-12T06:29:16.891Z,99552.59
2022-09-12T06:29:48.763Z,99553.91
2022-09-12T06:30:25.298Z,99560.97
2022-09-12T06:31:09.786Z,99556.72
2022-09-12T06:31:43.224Z,99550.13
2022-09-12T06:32:15.059Z,99560.78
2022-09-12T06:32:47.193Z,99559.28
2022-09-12T06:33:19.575Z,99561.69
2022-09-12T06:33:53.699Z,99555.31
2022-09-12T06:34:28.119Z,99567.97
2022-09-12T06:34:59.951Z,99561.94
2022-09-12T06:35:35.411Z,99562.12
2022-09-12T06:36:12.489Z,99555.97
2022-09-12T06:36:47.225Z,99562.59
2022-09-12T06:37:19.893Z,99562.50
2022-09-12T06:37:52.327Z,99558.31
2022-09-12T06:38:24.148Z,99560.38
2022-09-12T06:38:58.643Z,99563.94
2022-09-12T06:39:31.613Z,99562.34
2022-09-12T06:40:03.688Z,99562.28
2022-09-12T06:40:41.358Z,99566.78
2022-09-12T06:41:13.741Z,99561.78
2022-09-12T06:41:46.437Z,99570.19
2022-09-12T06:42:20.033Z,99558.72
2022-09-12T06:42:52.558Z,99565.44
2022-09-12T06:43:25.848Z,99562.03
2022-09-12T06:43:59.091Z,99567.47
2022-09-12T06:44:31.657Z,99564.91
2022-09-12T06:45:03.736Z,99564.41
2022-09-12T06:45:35.750Z,99564.56
2022-09-12T06:46:08.756Z,99567.44
2022-09-12T06:46:40.611Z,99565.44
2022-09-12T06:47:12.956Z,99564.66
2022-09-12T06:47:44.794Z,99557.25
2022-09-12T06:48:17.274Z,99570.41
2022-09-12T06:48:49.318Z,99561.81
2022-09-12T06:49:21.304Z,99568.69
2022-09-12T06:49:53.125Z,99557.91
2022-09-12T06:50:25.096Z,99565.00
2022-09-12T06:51:02.148Z,99560.78
2022-09-12T06:51:36.273Z,99569.22
2022-09-12T06:52:08.138Z,99568.53
2022-09-12T06:52:40.053Z,99564.75
2022-09-12T06:53:11.896Z,99557.97
2022-09-12T06:53:45.517Z,99561.88
2022-09-12T06:54:17.527Z,99559.97
2022-09-12T06:54:49.358Z,99569.94
2022-09-12T06:55:24.637Z,99560.75
2022-09-12T06:56:06.765Z,99563.88
2022-09-12T06:56:38.916Z,99572.72
2022-09-12T06:57:10.723Z,99561.13
2022-09-12T06:57:42.562Z,99563.59
2022-09-12T06:58:14.626Z,99564.50
2022-09-12T06:58:48.267Z,99563.16
2022-09-12T06:59:20.143Z,99569.69
2022-09-12T06:59:51.956Z,99559.56
2022-09-12T07:00:23.995Z,99561.16
2022-09-12T07:01:13.198Z,99564.88
2022-09-12T07:01:45.145Z,99565.72
2022-09-12T07:02:17.226Z,99563.34
2022-09-12T07:02:49.153Z,99563.72
2022-09-12T07:03:21.001Z,99565.16